Time,TemperatureF,DewpointF,PressureIn,WindDirection,WindDirectionDegrees,WindSpeedMPH,WindSpeedGustMPH,Humidity,HourlyPrecipIn,Conditions,Clouds,dailyrainin,SoftwareType,DateUTC
2013-10-08 00:01:00,52.3,38.5,30.15,South,180,0.0,0.0,59,0.00,,---,0.00,VWS V14.01,2013-10-08 05:01:00,
2013-10-08 00:06:00,52.2,38.3,30.15,SSE,158,0.0,1.1,59,0.00,,---,0.00,VWS V14.01,2013-10-08 05:06:00,
2013-10-08 00:11:00,52.2,38.3,30.15,South,180,0.0,1.6,59,0.00,,---,0.00,VWS V14.01,2013-10-08 05:11:00,
2013-10-08 00:16:00,52.2,38.3,30.15,South,180,0.0,0.0,59,0.00,,---,0.00,VWS V14.01,2013-10-08 05:16:00,
2013-10-08 00:21:00,52.2,38.7,30.15,South,180,0.0,1.6,60,0.00,,---,0.00,VWS V14.01,2013-10-08 05:21:00,
2013-10-08 00:26:00,52.3,38.9,30.18,South,180,0.0,0.0,60,0.00,,---,0.00,VWS V14.01,2013-10-08 05:26:00,
2013-10-08 00:31:00,52.2,38.7,30.18,South,180,0.0,0.0,60,0.00,,---,0.00,VWS V14.01,2013-10-08 05:31:00,
2013-10-08 00:36:00,52.2,38.7,30.18,SSE,158,0.0,0.9,60,0.00,,---,0.00,VWS V14.01,2013-10-08 05:36:00,
2013-10-08 00:41:00,52.3,38.9,30.15,South,180,1.3,1.3,60,0.00,,---,0.00,VWS V14.01,2013-10-08 05:41:00,
2013-10-08 00:46:00,52.2,38.3,30.15,South,180,0.0,0.0,59,0.00,,---,0.00,VWS V14.01,2013-10-08 05:46:00,
2013-10-08 00:51:00,52.0,38.5,30.15,South,180,0.0,0.0,60,0.00,,---,0.00,VWS V14.01,2013-10-08 05:51:00,
2013-10-08 00:56:00,51.6,38.6,30.15,South,180,0.0,1.1,61,0.00,,---,0.00,VWS V14.01,2013-10-08 05:56:00,
2013-10-08 01:01:00,51.4,38.5,30.15,South,180,0.0,0.0,61,0.00,,---,0.00,VWS V14.01,2013-10-08 06:01:00,
2013-10-08 01:06:00,51.3,38.3,30.15,SSW,202,0.0,0.9,61,0.00,,---,0.00,VWS V14.01,2013-10-08 06:06:00,
2013-10-08 01:11:00,50.9,38.4,30.15,SSW,202,0.0,0.0,62,0.00,,---,0.00,VWS V14.01,2013-10-08 06:11:00,
2013-10-08 01:16:00,50.5,38.0,30.15,South,180,0.0,0.0,62,0.00,,---,0.00,VWS V14.01,2013-10-08 06:16:00,
2013-10-08 01:21:00,50.2,37.7,30.15,South,180,0.0,0.0,62,0.00,,---,0.00,VWS V14.01,2013-10-08 06:21:00,
2013-10-08 01:26:00,50.0,37.9,30.15,SSE,158,0.0,0.0,63,0.00,,---,0.00,VWS V14.01,2013-10-08 06:26:00,
2013-10-08 01:31:00,49.6,38.0,30.15,South,180,0.0,0.0,64,0.00,,---,0.00,VWS V14.01,2013-10-08 06:31:00,
2013-10-08 01:36:00,49.3,37.6,30.15,South,180,0.0,0.0,64,0.00,,---,0.00,VWS V14.01,2013-10-08 06:36:00,
2013-10-08 01:41:00,48.9,37.7,30.15,South,180,0.0,0.0,65,0.00,,---,0.00,VWS V14.01,2013-10-08 06:41:00,
2013-10-08 01:46:00,49.1,38.6,30.15,SSW,202,0.0,0.0,67,0.00,,---,0.00,VWS V14.01,2013-10-08 06:46:00,
2013-10-08 01:51:00,49.1,39.0,30.15,SSE,158,1.1,1.1,68,0.00,,---,0.00,VWS V14.01,2013-10-08 06:51:00,
2013-10-08 01:57:00,49.6,39.5,30.15,South,180,0.0,0.0,68,0.00,,---,0.00,VWS V14.01,2013-10-08 06:57:00,
2013-10-08 02:02:00,49.5,39.0,30.15,SSE,158,0.0,2.0,67,0.00,,---,0.00,VWS V14.01,2013-10-08 07:02:00,
2013-10-08 02:07:00,49.6,39.2,30.15,South,180,0.0,0.0,67,0.00,,---,0.00,VWS V14.01,2013-10-08 07:07:00,
2013-10-08 02:12:00,49.8,39.7,30.15,South,180,0.0,2.2,68,0.00,,---,0.00,VWS V14.01,2013-10-08 07:12:00,
2013-10-08 02:17:00,50.4,39.5,30.15,South,180,0.0,1.3,66,0.00,,---,0.00,VWS V14.01,2013-10-08 07:17:00,
2013-10-08 02:22:00,50.4,39.5,30.15,South,180,1.3,1.3,66,0.00,,---,0.00,VWS V14.01,2013-10-08 07:22:00,
2013-10-08 02:27:00,50.5,39.2,30.15,SSW,202,0.0,1.1,65,0.00,,---,0.00,VWS V14.01,2013-10-08 07:27:00,
2013-10-08 02:32:00,50.7,39.4,30.15,SSW,202,2.2,2.2,65,0.00,,---,0.00,VWS V14.01,2013-10-08 07:32:00,
2013-10-08 02:37:00,50.5,39.2,30.15,SE,135,2.0,2.5,65,0.00,,---,0.00,VWS V14.01,2013-10-08 07:37:00,
2013-10-08 02:42:00,50.2,38.9,30.15,South,180,0.0,0.9,65,0.00,,---,0.00,VWS V14.01,2013-10-08 07:42:00,
2013-10-08 02:47:00,50.2,39.3,30.15,South,180,0.0,2.9,66,0.00,,---,0.00,VWS V14.01,2013-10-08 07:47:00,
2013-10-08 02:52:00,50.4,39.5,30.15,South,180,0.0,2.9,66,0.00,,---,0.00,VWS V14.01,2013-10-08 07:52:00,
2013-10-08 02:57:00,50.4,39.1,30.18,SSE,158,0.9,0.9,65,0.00,,---,0.00,VWS V14.01,2013-10-08 07:57:00,
2013-10-08 03:02:00,50.2,38.9,30.18,South,180,1.3,2.5,65,0.00,,---,0.00,VWS V14.01,2013-10-08 08:02:00,
2013-10-08 03:07:00,50.2,38.9,30.18,SSE,158,0.0,2.0,65,0.00,,---,0.00,VWS V14.01,2013-10-08 08:07:00,
2013-10-08 03:12:00,50.0,38.7,30.18,South,180,0.0,1.6,65,0.00,,---,0.00,VWS V14.01,2013-10-08 08:12:00,
2013-10-08 03:17:00,49.8,38.9,30.18,South,180,0.0,1.3,66,0.00,,---,0.00,VWS V14.01,2013-10-08 08:17:00,
2013-10-08 03:22:00,49.8,38.9,30.18,South,180,0.0,2.9,66,0.00,,---,0.00,VWS V14.01,2013-10-08 08:22:00,
2013-10-08 03:27:00,49.6,39.2,30.15,South,180,0.0,0.9,67,0.00,,---,0.00,VWS V14.01,2013-10-08 08:27:00,
2013-10-08 03:32:00,49.8,39.3,30.15,SSE,158,2.0,2.0,67,0.00,,---,0.00,VWS V14.01,2013-10-08 08:32:00,
2013-10-08 03:37:00,49.8,39.7,30.15,SSW,202,0.0,2.9,68,0.00,,---,0.00,VWS V14.01,2013-10-08 08:37:00,
2013-10-08 03:42:00,49.8,39.3,30.15,South,180,0.0,3.4,67,0.00,,---,0.00,VWS V14.01,2013-10-08 08:42:00,
2013-10-08 03:47:00,49.8,39.3,30.15,South,180,0.0,2.0,67,0.00,,---,0.00,VWS V14.01,2013-10-08 08:47:00,
2013-10-08 03:52:00,49.6,39.5,30.15,South,180,0.0,2.9,68,0.00,,---,0.00,VWS V14.01,2013-10-08 08:52:00,
2013-10-08 03:57:00,49.5,39.3,30.15,SSW,202,0.0,1.3,68,0.00,,---,0.00,VWS V14.01,2013-10-08 08:57:00,
2013-10-08 04:02:00,49.3,39.2,30.15,South,180,1.6,2.0,68,0.00,,---,0.00,VWS V14.01,2013-10-08 09:02:00,
2013-10-08 04:07:00,49.1,39.0,30.15,SSW,202,0.0,0.0,68,0.00,,---,0.00,VWS V14.01,2013-10-08 09:07:00,
2013-10-08 04:12:00,48.9,39.2,30.15,SSW,202,0.0,0.9,69,0.00,,---,0.00,VWS V14.01,2013-10-08 09:12:00,
2013-10-08 04:17:00,48.6,38.9,30.15,SSW,202,0.0,0.0,69,0.00,,---,0.00,VWS V14.01,2013-10-08 09:17:00,
2013-10-08 04:22:00,48.0,38.3,30.15,SSW,202,0.0,0.0,69,0.00,,---,0.00,VWS V14.01,2013-10-08 09:22:00,
2013-10-08 04:27:00,47.7,38.0,30.15,South,180,0.0,0.0,69,0.00,,---,0.00,VWS V14.01,2013-10-08 09:27:00,
2013-10-08 04:32:00,47.3,38.0,30.15,SSW,202,0.0,0.0,70,0.00,,---,0.00,VWS V14.01,2013-10-08 09:32:00,
2013-10-08 04:37:00,46.9,37.7,30.15,SSW,202,0.0,0.0,70,0.00,,---,0.00,VWS V14.01,2013-10-08 09:37:00,
2013-10-08 04:42:00,46.9,38.8,30.15,South,180,0.0,0.0,73,0.00,,---,0.00,VWS V14.01,2013-10-08 09:42:00,
2013-10-08 04:47:00,46.9,39.1,30.15,South,180,1.1,2.0,74,0.00,,---,0.00,VWS V14.01,2013-10-08 09:47:00,
2013-10-08 04:52:00,46.8,38.9,30.15,South,180,0.9,0.9,74,0.00,,---,0.00,VWS V14.01,2013-10-08 09:52:00,
2013-10-08 04:57:00,46.9,39.4,30.15,South,180,0.0,2.2,75,0.00,,---,0.00,VWS V14.01,2013-10-08 09:57:00,
2013-10-08 05:02:00,47.1,39.6,30.15,SSE,158,0.0,2.2,75,0.00,,---,0.00,VWS V14.01,2013-10-08 10:02:00,
2013-10-08 05:07:00,47.1,39.6,30.15,South,180,0.0,0.0,75,0.00,,---,0.00,VWS V14.01,2013-10-08 10:07:00,
2013-10-08 05:12:00,47.3,39.5,30.15,South,180,0.9,1.1,74,0.00,,---,0.00,VWS V14.01,2013-10-08 10:12:00,
2013-10-08 05:17:00,47.7,39.8,30.15,SE,135,1.6,2.9,74,0.00,,---,0.00,VWS V14.01,2013-10-08 10:17:00,
2013-10-08 05:22:00,48.0,40.1,30.15,South,180,2.0,2.7,74,0.00,,---,0.00,VWS V14.01,2013-10-08 10:22:00,
2013-10-08 05:27:00,48.2,39.6,30.15,SSE,158,2.5,3.4,72,0.00,,---,0.00,VWS V14.01,2013-10-08 10:27:00,
2013-10-08 05:32:00,48.2,39.6,30.15,SSE,158,0.0,0.0,72,0.00,,---,0.00,VWS V14.01,2013-10-08 10:32:00,
2013-10-08 05:37:00,48.4,39.4,30.15,SSW,202,0.0,0.0,71,0.00,,---,0.00,VWS V14.01,2013-10-08 10:37:00,
2013-10-08 05:42:00,48.4,39.4,30.15,SSE,158,1.6,3.4,71,0.00,,---,0.00,VWS V14.01,2013-10-08 10:42:00,
2013-10-08 05:47:00,48.2,39.2,30.15,South,180,1.3,2.0,71,0.00,,---,0.00,VWS V14.01,2013-10-08 10:47:00,
2013-10-08 05:52:00,48.2,39.2,30.15,South,180,1.1,2.9,71,0.00,,---,0.00,VWS V14.01,2013-10-08 10:52:00,
2013-10-08 05:57:00,48.0,39.4,30.15,SSE,158,0.9,2.5,72,0.00,,---,0.00,VWS V14.01,2013-10-08 10:57:00,
2013-10-08 06:02:00,48.0,39.8,30.15,South,180,1.3,1.3,73,0.00,,---,0.00,VWS V14.01,2013-10-08 11:02:00,
2013-10-08 06:07:00,47.8,39.3,30.15,SSW,202,0.0,0.0,72,0.00,,---,0.00,VWS V14.01,2013-10-08 11:07:00,
2013-10-08 06:12:00,47.8,39.6,30.15,South,180,0.0,1.6,73,0.00,,---,0.00,VWS V14.01,2013-10-08 11:12:00,
2013-10-08 06:17:00,48.0,40.1,30.15,South,180,0.0,1.6,74,0.00,,---,0.00,VWS V14.01,2013-10-08 11:17:00,
2013-10-08 06:22:00,48.0,39.8,30.15,SSW,202,0.0,1.1,73,0.00,,---,0.00,VWS V14.01,2013-10-08 11:22:00,
2013-10-08 06:27:00,48.0,40.1,30.15,SSW,202,1.6,3.4,74,0.00,,---,0.00,VWS V14.01,2013-10-08 11:27:00,
2013-10-08 06:32:00,48.0,40.1,30.15,SSW,202,0.0,1.3,74,0.00,,---,0.00,VWS V14.01,2013-10-08 11:32:00,
2013-10-08 06:38:00,47.8,40.0,30.15,South,180,1.1,1.6,74,0.00,,---,0.00,VWS V14.01,2013-10-08 11:38:00,
2013-10-08 06:43:00,47.8,40.0,30.15,SSW,202,2.5,2.5,74,0.00,,---,0.00,VWS V14.01,2013-10-08 11:43:00,
2013-10-08 06:48:00,47.7,39.8,30.15,SSW,202,0.0,0.0,74,0.00,,---,0.00,VWS V14.01,2013-10-08 11:48:00,
2013-10-08 06:53:00,47.3,39.5,30.15,South,180,1.6,2.0,74,0.00,,---,0.00,VWS V14.01,2013-10-08 11:53:00,
2013-10-08 06:58:00,47.1,39.6,30.15,South,180,0.0,1.3,75,0.00,,---,0.00,VWS V14.01,2013-10-08 11:58:00,
2013-10-08 07:04:00,47.1,40.0,30.15,South,180,0.0,2.2,76,0.00,,---,0.00,VWS V14.01,2013-10-08 12:04:00,
2013-10-08 07:09:00,47.1,40.3,30.15,South,180,0.0,0.9,77,0.00,,---,0.00,VWS V14.01,2013-10-08 12:09:00,
2013-10-08 07:15:00,47.1,40.3,30.15,South,180,1.1,1.6,77,0.00,,---,0.00,VWS V14.01,2013-10-08 12:15:00,
2013-10-08 07:21:00,47.1,40.3,30.15,SSE,158,0.0,1.3,77,0.00,,---,0.00,VWS V14.01,2013-10-08 12:21:00,
2013-10-08 07:26:00,47.3,40.5,30.15,SSW,202,3.4,3.4,77,0.00,,---,0.00,VWS V14.01,2013-10-08 12:26:00,
2013-10-08 07:31:00,47.3,40.5,30.15,SSE,158,0.9,4.3,77,0.00,,---,0.00,VWS V14.01,2013-10-08 12:31:00,
2013-10-08 07:36:00,47.3,40.5,30.15,SSW,202,0.9,1.1,77,0.00,,---,0.00,VWS V14.01,2013-10-08 12:36:00,
2013-10-08 07:41:00,47.3,40.5,30.15,South,180,1.1,1.1,77,0.00,,---,0.00,VWS V14.01,2013-10-08 12:41:00,
2013-10-08 07:46:00,47.5,41.0,30.15,South,180,1.1,3.1,78,0.00,,---,0.00,VWS V14.01,2013-10-08 12:46:00,
2013-10-08 07:52:00,48.9,41.7,30.15,South,180,2.9,2.9,76,0.00,,---,0.00,VWS V14.01,2013-10-08 12:52:00,
2013-10-08 07:57:00,50.2,42.2,30.15,SSW,202,3.1,3.1,74,0.00,,---,0.00,VWS V14.01,2013-10-08 12:57:00,
2013-10-08 08:02:00,50.9,42.2,30.15,South,180,2.0,2.0,72,0.00,,---,0.00,VWS V14.01,2013-10-08 13:02:00,
2013-10-08 08:07:00,51.6,42.2,30.15,SSW,202,2.9,2.9,70,0.00,,---,0.00,VWS V14.01,2013-10-08 13:07:00,
2013-10-08 08:12:00,52.2,41.9,30.15,SSW,202,2.7,3.1,68,0.00,,---,0.00,VWS V14.01,2013-10-08 13:12:00,
2013-10-08 08:17:00,52.7,42.1,30.15,South,180,3.1,3.6,67,0.00,,---,0.00,VWS V14.01,2013-10-08 13:17:00,
2013-10-08 08:22:00,53.1,42.0,30.15,South,180,3.6,3.6,66,0.00,,---,0.00,VWS V14.01,2013-10-08 13:22:00,
2013-10-08 08:27:00,53.6,41.7,30.15,SSW,202,1.1,5.4,64,0.00,,---,0.00,VWS V14.01,2013-10-08 13:27:00,
2013-10-08 08:32:00,54.1,41.8,30.15,SSW,202,1.1,5.6,63,0.00,,---,0.00,VWS V14.01,2013-10-08 13:32:00,
2013-10-08 08:37:00,54.5,42.2,30.15,South,180,2.5,3.6,63,0.00,,---,0.00,VWS V14.01,2013-10-08 13:37:00,
2013-10-08 08:42:00,54.9,42.1,30.15,South,180,3.1,4.9,62,0.00,,---,0.00,VWS V14.01,2013-10-08 13:42:00,
2013-10-08 08:47:00,55.6,42.8,30.15,South,180,1.6,2.0,62,0.00,,---,0.00,VWS V14.01,2013-10-08 13:47:00,
2013-10-08 08:52:00,56.3,42.6,30.15,SSW,202,1.1,1.3,60,0.00,,---,0.00,VWS V14.01,2013-10-08 13:52:00,
2013-10-08 08:57:00,56.3,42.6,30.15,SSW,202,4.0,4.0,60,0.00,,---,0.00,VWS V14.01,2013-10-08 13:57:00,
2013-10-08 09:02:00,57.6,42.9,30.15,South,180,5.6,5.6,58,0.00,,---,0.00,VWS V14.01,2013-10-08 14:02:00,
2013-10-08 09:07:00,57.7,42.2,30.15,SSE,158,6.5,6.5,56,0.00,,---,0.00,VWS V14.01,2013-10-08 14:07:00,
2013-10-08 09:12:00,57.9,42.3,30.15,SSW,202,3.4,4.0,56,0.00,,---,0.00,VWS V14.01,2013-10-08 14:12:00,
2013-10-08 09:17:00,58.5,42.4,30.15,SSW,202,5.4,7.4,55,0.00,,---,0.00,VWS V14.01,2013-10-08 14:17:00,
2013-10-08 09:22:00,59.2,43.5,30.15,SW,225,2.2,4.3,56,0.00,,---,0.00,VWS V14.01,2013-10-08 14:22:00,
2013-10-08 09:27:00,59.9,43.2,30.15,South,180,3.6,9.6,54,0.00,,---,0.00,VWS V14.01,2013-10-08 14:27:00,
2013-10-08 09:32:00,60.6,43.4,30.15,South,180,5.4,5.4,53,0.00,,---,0.00,VWS V14.01,2013-10-08 14:32:00,
2013-10-08 09:37:00,61.2,43.4,30.15,SSW,202,5.6,7.8,52,0.00,,---,0.00,VWS V14.01,2013-10-08 14:37:00,
2013-10-08 09:42:00,61.9,43.6,30.12,South,180,5.4,6.0,51,0.00,,---,0.00,VWS V14.01,2013-10-08 14:42:00,
2013-10-08 09:47:00,62.2,43.4,30.12,SSE,158,4.0,4.9,50,0.00,,---,0.00,VWS V14.01,2013-10-08 14:47:00,
2013-10-08 09:52:00,62.6,43.7,30.12,SSW,202,4.0,6.0,50,0.00,,---,0.00,VWS V14.01,2013-10-08 14:52:00,
2013-10-08 09:57:00,63.1,43.7,30.12,SSE,158,3.4,8.7,49,0.00,,---,0.00,VWS V14.01,2013-10-08 14:57:00,
2013-10-08 10:02:00,64.2,44.7,30.12,SSW,202,5.8,7.8,49,0.00,,---,0.00,VWS V14.01,2013-10-08 15:02:00,
2013-10-08 10:07:00,64.4,43.8,30.12,SSW,202,10.1,10.1,47,0.00,,---,0.00,VWS V14.01,2013-10-08 15:07:00,
2013-10-08 10:12:00,64.6,43.4,30.15,South,180,5.4,7.2,46,0.00,,---,0.00,VWS V14.01,2013-10-08 15:12:00,
2013-10-08 10:17:00,65.5,44.2,30.15,South,180,3.6,6.0,46,0.00,,---,0.00,VWS V14.01,2013-10-08 15:17:00,
2013-10-08 10:22:00,66.2,44.2,30.15,SSW,202,6.0,6.0,45,0.00,,---,0.00,VWS V14.01,2013-10-08 15:22:00,
2013-10-08 10:27:00,66.9,44.3,30.12,South,180,10.7,10.7,44,0.00,,---,0.00,VWS V14.01,2013-10-08 15:27:00,
2013-10-08 10:32:00,66.9,44.3,30.12,SSW,202,10.3,10.3,44,0.00,,---,0.00,VWS V14.01,2013-10-08 15:32:00,
2013-10-08 10:37:00,67.1,43.9,30.12,South,180,5.6,15.2,43,0.00,,---,0.00,VWS V14.01,2013-10-08 15:37:00,
2013-10-08 10:42:00,67.5,44.2,30.15,SSW,202,6.3,9.8,43,0.00,,---,0.00,VWS V14.01,2013-10-08 15:42:00,
2013-10-08 10:47:00,67.8,43.9,30.15,SSE,158,4.5,12.8,42,0.00,,---,0.00,VWS V14.01,2013-10-08 15:47:00,
2013-10-08 10:52:00,68.2,44.2,30.15,South,180,4.9,7.6,42,0.00,,---,0.00,VWS V14.01,2013-10-08 15:52:00,
2013-10-08 10:57:00,68.7,44.1,30.15,WSW,248,6.3,11.9,41,0.00,,---,0.00,VWS V14.01,2013-10-08 15:57:00,
2013-10-08 11:02:00,68.5,43.3,30.15,SSW,202,8.7,13.4,40,0.00,,---,0.00,VWS V14.01,2013-10-08 16:02:00,
2013-10-08 11:07:00,69.1,44.4,30.15,WSW,248,10.3,10.3,41,0.00,,---,0.00,VWS V14.01,2013-10-08 16:07:00,
2013-10-08 11:12:00,70.0,44.6,30.15,SSE,158,12.8,12.8,40,0.00,,---,0.00,VWS V14.01,2013-10-08 16:12:00,
2013-10-08 11:17:00,70.5,44.4,30.15,SSW,202,10.7,10.7,39,0.00,,---,0.00,VWS V14.01,2013-10-08 16:17:00,
2013-10-08 11:22:00,70.5,44.4,30.15,SSW,202,2.5,7.4,39,0.00,,---,0.00,VWS V14.01,2013-10-08 16:22:00,
2013-10-08 11:27:00,70.9,44.0,30.15,SSW,202,8.5,9.6,38,0.00,,---,0.00,VWS V14.01,2013-10-08 16:27:00,
2013-10-08 11:32:00,70.9,43.3,30.15,SW,225,8.1,9.6,37,0.00,,---,0.00,VWS V14.01,2013-10-08 16:32:00,
2013-10-08 11:37:00,71.1,42.8,30.15,South,180,2.0,10.5,36,0.00,,---,0.00,VWS V14.01,2013-10-08 16:37:00,
2013-10-08 11:42:00,71.2,42.9,30.15,SSW,202,10.7,11.0,36,0.00,,---,0.00,VWS V14.01,2013-10-08 16:42:00,
2013-10-08 11:47:00,71.8,43.4,30.15,SSW,202,3.8,8.1,36,0.00,,---,0.00,VWS V14.01,2013-10-08 16:47:00,
2013-10-08 11:52:00,72.1,43.7,30.15,South,180,8.7,8.7,36,0.00,,---,0.00,VWS V14.01,2013-10-08 16:52:00,
2013-10-08 11:57:00,72.1,43.0,30.15,SSW,202,5.8,12.8,35,0.00,,---,0.00,VWS V14.01,2013-10-08 16:57:00,
2013-10-08 12:02:00,72.3,43.2,30.15,SW,225,5.8,7.4,35,0.00,,---,0.00,VWS V14.01,2013-10-08 17:02:00,
2013-10-08 12:07:00,72.9,43.6,30.15,South,180,7.8,8.7,35,0.00,,---,0.00,VWS V14.01,2013-10-08 17:07:00,
2013-10-08 12:12:00,73.0,43.8,30.12,South,180,3.4,6.3,35,0.00,,---,0.00,VWS V14.01,2013-10-08 17:12:00,
2013-10-08 12:17:00,73.2,44.0,30.12,South,180,2.7,10.5,35,0.00,,---,0.00,VWS V14.01,2013-10-08 17:17:00,
2013-10-08 12:22:00,74.1,44.8,30.12,South,180,8.5,8.5,35,0.00,,---,0.00,VWS V14.01,2013-10-08 17:22:00,
2013-10-08 12:27:00,74.3,44.1,30.12,SSW,202,4.3,8.1,34,0.00,,---,0.00,VWS V14.01,2013-10-08 17:27:00,
2013-10-08 12:32:00,74.1,44.0,30.12,South,180,3.6,8.5,34,0.00,,---,0.00,VWS V14.01,2013-10-08 17:32:00,
2013-10-08 12:37:00,74.3,44.1,30.12,SSW,202,10.5,10.5,34,0.00,,---,0.00,VWS V14.01,2013-10-08 17:37:00,
2013-10-08 12:42:00,74.7,44.5,30.12,South,180,4.0,7.4,34,0.00,,---,0.00,VWS V14.01,2013-10-08 17:42:00,
2013-10-08 12:47:00,75.4,44.3,30.12,WSW,248,5.8,6.5,33,0.00,,---,0.00,VWS V14.01,2013-10-08 17:47:00,
2013-10-08 12:52:00,75.7,44.6,30.12,SW,225,5.4,7.6,33,0.00,,---,0.00,VWS V14.01,2013-10-08 17:52:00,
2013-10-08 12:57:00,75.4,44.3,30.12,SW,225,6.5,8.7,33,0.00,,---,0.00,VWS V14.01,2013-10-08 17:57:00,
2013-10-08 13:02:00,75.9,44.8,30.12,SSE,158,3.6,7.4,33,0.00,,---,0.00,VWS V14.01,2013-10-08 18:02:00,
2013-10-08 13:07:00,76.1,44.1,30.12,SSW,202,9.4,9.4,32,0.00,,---,0.00,VWS V14.01,2013-10-08 18:07:00,
2013-10-08 13:12:00,75.6,43.7,30.09,SW,225,6.5,9.8,32,0.00,,---,0.00,VWS V14.01,2013-10-08 18:12:00,
2013-10-08 13:17:00,76.6,44.6,30.09,SSW,202,7.8,10.3,32,0.00,,---,0.00,VWS V14.01,2013-10-08 18:17:00,
2013-10-08 13:22:00,77.4,45.2,30.09,SSW,202,4.3,7.8,32,0.00,,---,0.00,VWS V14.01,2013-10-08 18:22:00,
2013-10-08 13:27:00,77.2,44.2,30.09,SSW,202,6.0,9.8,31,0.00,,---,0.00,VWS V14.01,2013-10-08 18:27:00,
2013-10-08 13:32:00,77.0,44.9,30.09,SW,225,8.1,12.8,32,0.00,,---,0.00,VWS V14.01,2013-10-08 18:32:00,
2013-10-08 13:37:00,77.4,45.2,30.09,South,180,6.0,6.0,32,0.00,,---,0.00,VWS V14.01,2013-10-08 18:37:00,
2013-10-08 13:42:00,77.4,44.4,30.09,SSE,158,10.7,10.7,31,0.00,,---,0.00,VWS V14.01,2013-10-08 18:42:00,
2013-10-08 13:47:00,77.9,44.9,30.09,South,180,10.1,15.2,31,0.00,,---,0.00,VWS V14.01,2013-10-08 18:47:00,
2013-10-08 13:52:00,78.1,45.8,30.09,South,180,3.1,5.8,32,0.00,,---,0.00,VWS V14.01,2013-10-08 18:52:00,
2013-10-08 13:57:00,78.3,45.2,30.09,SSW,202,6.3,9.6,31,0.00,,---,0.00,VWS V14.01,2013-10-08 18:57:00,
2013-10-08 14:02:00,78.6,46.3,30.09,SSW,202,4.9,5.6,32,0.00,,---,0.00,VWS V14.01,2013-10-08 19:02:00,
2013-10-08 14:07:00,78.6,45.5,30.09,SSW,202,7.6,7.6,31,0.00,,---,0.00,VWS V14.01,2013-10-08 19:07:00,
2013-10-08 14:12:00,77.9,44.9,30.09,South,180,9.2,9.6,31,0.00,,---,0.00,VWS V14.01,2013-10-08 19:12:00,
2013-10-08 14:17:00,78.6,45.5,30.09,SSE,158,2.9,5.8,31,0.00,,---,0.00,VWS V14.01,2013-10-08 19:17:00,
2013-10-08 14:22:00,78.4,45.3,30.09,South,180,11.9,13.2,31,0.00,,---,0.00,VWS V14.01,2013-10-08 19:22:00,
2013-10-08 14:27:00,78.1,45.0,30.09,SSW,202,3.8,8.7,31,0.00,,---,0.00,VWS V14.01,2013-10-08 19:27:00,
2013-10-08 14:32:00,78.8,45.6,30.09,South,180,3.8,8.7,31,0.00,,---,0.00,VWS V14.01,2013-10-08 19:32:00,
2013-10-08 14:37:00,79.0,44.9,30.09,SSW,202,4.7,10.3,30,0.00,,---,0.00,VWS V14.01,2013-10-08 19:37:00,
2013-10-08 14:42:00,79.5,46.3,30.06,South,180,1.1,4.0,31,0.00,,---,0.00,VWS V14.01,2013-10-08 19:42:00,
2013-10-08 14:47:00,80.1,46.7,30.06,SSW,202,4.5,5.6,31,0.00,,---,0.00,VWS V14.01,2013-10-08 19:47:00,
2013-10-08 14:52:00,79.9,45.7,30.06,SSW,202,9.0,15.4,30,0.00,,---,0.00,VWS V14.01,2013-10-08 19:52:00,
2013-10-08 14:57:00,79.0,44.9,30.06,SSW,202,3.8,8.5,30,0.00,,---,0.00,VWS V14.01,2013-10-08 19:57:00,
2013-10-08 15:02:00,79.9,45.7,30.06,SE,135,3.1,8.5,30,0.00,,---,0.00,VWS V14.01,2013-10-08 20:02:00,
2013-10-08 15:07:00,79.5,45.4,30.06,South,180,7.2,10.7,30,0.00,,---,0.00,VWS V14.01,2013-10-08 20:07:00,
2013-10-08 15:12:00,79.3,45.2,30.03,South,180,6.3,8.7,30,0.00,,---,0.00,VWS V14.01,2013-10-08 20:12:00,
2013-10-08 15:17:00,79.2,45.1,30.03,South,180,4.0,9.6,30,0.00,,---,0.00,VWS V14.01,2013-10-08 20:17:00,
2013-10-08 15:22:00,79.2,45.1,30.03,East,90,5.4,10.3,30,0.00,,---,0.00,VWS V14.01,2013-10-08 20:22:00,
2013-10-08 15:27:00,79.0,44.9,30.03,SSW,202,10.1,10.7,30,0.00,,---,0.00,VWS V14.01,2013-10-08 20:27:00,
2013-10-08 15:32:00,79.7,45.6,30.03,SSW,202,4.5,7.4,30,0.00,,---,0.00,VWS V14.01,2013-10-08 20:32:00,
2013-10-08 15:37:00,79.5,45.4,30.03,SSW,202,2.7,7.8,30,0.00,,---,0.00,VWS V14.01,2013-10-08 20:37:00,
2013-10-08 15:42:00,79.0,44.9,30.03,SSW,202,8.1,11.9,30,0.00,,---,0.00,VWS V14.01,2013-10-08 20:42:00,
2013-10-08 15:47:00,79.0,44.9,30.03,SSE,158,3.8,8.5,30,0.00,,---,0.00,VWS V14.01,2013-10-08 20:47:00,
2013-10-08 15:52:00,79.2,45.1,30.03,SSE,158,2.0,6.0,30,0.00,,---,0.00,VWS V14.01,2013-10-08 20:52:00,
2013-10-08 15:57:00,79.0,44.9,30.03,South,180,6.3,11.9,30,0.00,,---,0.00,VWS V14.01,2013-10-08 20:57:00,
2013-10-08 16:02:00,78.4,44.5,30.03,SSW,202,10.5,10.7,30,0.00,,---,0.00,VWS V14.01,2013-10-08 21:02:00,
2013-10-08 16:07:00,78.8,44.8,30.03,SE,135,6.5,6.5,30,0.00,,---,0.00,VWS V14.01,2013-10-08 21:07:00,
2013-10-08 16:12:00,78.6,44.6,30.00,SE,135,9.2,9.2,30,0.00,,---,0.00,VWS V14.01,2013-10-08 21:12:00,
2013-10-08 16:17:00,78.8,44.8,30.00,SSW,202,8.5,8.5,30,0.00,,---,0.00,VWS V14.01,2013-10-08 21:17:00,
2013-10-08 16:22:00,78.3,44.3,30.00,South,180,7.8,9.8,30,0.00,,---,0.00,VWS V14.01,2013-10-08 21:22:00,
2013-10-08 16:27:00,78.6,44.6,30.03,SSE,158,7.8,7.8,30,0.00,,---,0.00,VWS V14.01,2013-10-08 21:27:00,
2013-10-08 16:32:00,78.4,44.5,30.03,South,180,7.6,10.3,30,0.00,,---,0.00,VWS V14.01,2013-10-08 21:32:00,
2013-10-08 16:37:00,78.4,44.5,30.03,SSW,202,1.3,11.9,30,0.00,,---,0.00,VWS V14.01,2013-10-08 21:37:00,
2013-10-08 16:42:00,78.3,44.3,30.03,South,180,5.6,12.3,30,0.00,,---,0.00,VWS V14.01,2013-10-08 21:42:00,
2013-10-08 16:47:00,78.3,44.3,30.03,SSW,202,6.3,9.8,30,0.00,,---,0.00,VWS V14.01,2013-10-08 21:47:00,
2013-10-08 16:52:00,78.3,45.2,30.03,South,180,3.4,6.9,31,0.00,,---,0.00,VWS V14.01,2013-10-08 21:52:00,
2013-10-08 16:57:00,78.1,45.0,30.03,South,180,10.5,12.3,31,0.00,,---,0.00,VWS V14.01,2013-10-08 21:57:00,
2013-10-08 17:03:00,77.5,44.5,30.03,SSE,158,9.8,9.8,31,0.00,,---,0.00,VWS V14.01,2013-10-08 22:03:00,
2013-10-08 17:08:00,77.2,44.2,30.03,SSW,202,6.3,12.1,31,0.00,,---,0.00,VWS V14.01,2013-10-08 22:08:00,
2013-10-08 17:13:00,76.5,44.4,30.03,South,180,5.6,7.2,32,0.00,,---,0.00,VWS V14.01,2013-10-08 22:13:00,
2013-10-08 17:18:00,76.1,44.1,30.03,SSW,202,3.4,12.5,32,0.00,,---,0.00,VWS V14.01,2013-10-08 22:18:00,
2013-10-08 17:24:00,75.6,43.7,30.03,SSE,158,10.3,10.3,32,0.00,,---,0.00,VWS V14.01,2013-10-08 22:24:00,
2013-10-08 17:29:00,75.2,43.3,30.03,ESE,112,3.6,10.7,32,0.00,,---,0.00,VWS V14.01,2013-10-08 22:29:00,
2013-10-08 17:34:00,74.8,43.0,30.03,ESE,112,7.2,9.6,32,0.00,,---,0.00,VWS V14.01,2013-10-08 22:34:00,
2013-10-08 17:39:00,74.3,43.4,30.03,South,180,8.1,8.1,33,0.00,,---,0.00,VWS V14.01,2013-10-08 22:39:00,
2013-10-08 17:45:00,73.9,43.0,30.03,SSE,158,6.0,6.0,33,0.00,,---,0.00,VWS V14.01,2013-10-08 22:45:00,
2013-10-08 17:50:00,73.8,42.9,30.03,SSW,202,4.3,6.0,33,0.00,,---,0.00,VWS V14.01,2013-10-08 22:50:00,
2013-10-08 17:55:00,73.4,42.6,30.03,South,180,4.0,4.7,33,0.00,,---,0.00,VWS V14.01,2013-10-08 22:55:00,
2013-10-08 18:01:00,73.2,43.2,30.03,SE,135,3.8,5.8,34,0.00,,---,0.00,VWS V14.01,2013-10-08 23:01:00,
2013-10-08 18:06:00,73.4,43.3,30.03,South,180,6.0,10.3,34,0.00,,---,0.00,VWS V14.01,2013-10-08 23:06:00,
2013-10-08 18:11:00,73.2,43.2,30.03,WNW,292,3.1,7.2,34,0.00,,---,0.00,VWS V14.01,2013-10-08 23:11:00,
2013-10-08 18:16:00,73.2,43.2,30.03,SSE,158,3.8,5.8,34,0.00,,---,0.00,VWS V14.01,2013-10-08 23:16:00,
2013-10-08 18:21:00,73.0,43.0,30.03,East,90,1.1,4.9,34,0.00,,---,0.00,VWS V14.01,2013-10-08 23:21:00,
2013-10-08 18:27:00,72.3,42.4,30.03,South,180,6.3,11.0,34,0.00,,---,0.00,VWS V14.01,2013-10-08 23:27:00,
2013-10-08 18:32:00,72.0,42.1,30.03,SE,135,3.6,5.8,34,0.00,,---,0.00,VWS V14.01,2013-10-08 23:32:00,
2013-10-08 18:38:00,71.4,42.4,30.03,South,180,6.5,8.7,35,0.00,,---,0.00,VWS V14.01,2013-10-08 23:38:00,
2013-10-08 18:43:00,70.9,41.9,30.03,South,180,2.5,5.4,35,0.00,,---,0.00,VWS V14.01,2013-10-08 23:43:00,
2013-10-08 18:48:00,70.5,41.6,30.03,SW,225,2.5,6.3,35,0.00,,---,0.00,VWS V14.01,2013-10-08 23:48:00,
2013-10-08 18:53:00,70.0,41.8,30.03,South,180,5.6,5.6,36,0.00,,---,0.00,VWS V14.01,2013-10-08 23:53:00,
2013-10-08 18:59:00,69.4,42.1,30.00,SE,135,2.0,3.4,37,0.00,,---,0.00,VWS V14.01,2013-10-08 23:59:00,
2013-10-08 19:04:00,68.9,41.6,30.00,SSE,158,4.0,8.1,37,0.00,,---,0.00,VWS V14.01,2013-10-09 00:04:00,
2013-10-08 19:09:00,68.5,42.6,30.03,South,180,4.3,4.3,39,0.00,,---,0.00,VWS V14.01,2013-10-09 00:09:00,
2013-10-08 19:15:00,68.2,43.0,30.03,SW,225,6.0,6.3,40,0.00,,---,0.00,VWS V14.01,2013-10-09 00:15:00,
2013-10-08 19:20:00,67.8,43.9,30.03,ESE,112,3.4,3.4,42,0.00,,---,0.00,VWS V14.01,2013-10-09 00:20:00,
2013-10-08 19:25:00,67.6,44.4,30.03,South,180,0.0,7.6,43,0.00,,---,0.00,VWS V14.01,2013-10-09 00:25:00,
2013-10-08 19:30:00,67.5,44.2,30.03,SSE,158,1.1,7.4,43,0.00,,---,0.00,VWS V14.01,2013-10-09 00:30:00,
2013-10-08 19:35:00,67.1,44.5,30.03,South,180,2.9,7.4,44,0.00,,---,0.00,VWS V14.01,2013-10-09 00:35:00,
2013-10-08 19:40:00,66.7,44.2,30.03,SSE,158,4.9,4.9,44,0.00,,---,0.00,VWS V14.01,2013-10-09 00:40:00,
2013-10-08 19:45:00,66.6,44.0,30.03,South,180,6.0,6.0,44,0.00,,---,0.00,VWS V14.01,2013-10-09 00:45:00,
2013-10-08 19:51:00,66.2,43.7,30.03,ESE,112,3.8,5.4,44,0.00,,---,0.00,VWS V14.01,2013-10-09 00:51:00,
2013-10-08 19:56:00,66.0,44.1,30.03,SE,135,0.9,4.0,45,0.00,,---,0.00,VWS V14.01,2013-10-09 00:56:00,
2013-10-08 20:01:00,65.8,43.9,30.03,South,180,4.3,5.6,45,0.00,,---,0.00,VWS V14.01,2013-10-09 01:01:00,
2013-10-08 20:06:00,65.7,44.3,30.03,South,180,5.6,5.6,46,0.00,,---,0.00,VWS V14.01,2013-10-09 01:06:00,
2013-10-08 20:12:00,65.3,44.0,30.03,SE,135,1.1,3.6,46,0.00,,---,0.00,VWS V14.01,2013-10-09 01:12:00,
2013-10-08 20:17:00,65.1,43.8,30.03,SSW,202,1.1,3.4,46,0.00,,---,0.00,VWS V14.01,2013-10-09 01:17:00,
2013-10-08 20:22:00,64.9,44.2,30.03,South,180,2.2,3.4,47,0.00,,---,0.00,VWS V14.01,2013-10-09 01:22:00,
2013-10-08 20:28:00,64.9,44.2,30.03,ENE,68,2.7,6.0,47,0.00,,---,0.00,VWS V14.01,2013-10-09 01:28:00,
2013-10-08 20:33:00,64.4,44.3,30.03,SW,225,2.7,3.8,48,0.00,,---,0.00,VWS V14.01,2013-10-09 01:33:00,
2013-10-08 20:38:00,64.2,44.7,30.03,SSW,202,6.5,6.5,49,0.00,,---,0.00,VWS V14.01,2013-10-09 01:38:00,
2013-10-08 20:43:00,64.2,45.2,30.00,SSW,202,4.0,6.3,50,0.00,,---,0.00,VWS V14.01,2013-10-09 01:43:00,
2013-10-08 20:48:00,64.0,45.0,30.00,South,180,3.8,5.8,50,0.00,,---,0.00,VWS V14.01,2013-10-09 01:48:00,
2013-10-08 20:54:00,64.0,45.0,30.03,SSW,202,1.6,6.3,50,0.00,,---,0.00,VWS V14.01,2013-10-09 01:54:00,
2013-10-08 20:59:00,63.9,45.4,30.03,ENE,68,3.4,6.5,51,0.00,,---,0.00,VWS V14.01,2013-10-09 01:59:00,
2013-10-08 21:04:00,63.7,45.2,30.03,ENE,68,0.0,3.8,51,0.00,,---,0.00,VWS V14.01,2013-10-09 02:04:00,
2013-10-08 21:09:00,63.5,45.6,30.03,South,180,3.8,5.4,52,0.00,,---,0.00,VWS V14.01,2013-10-09 02:09:00,
2013-10-08 21:15:00,63.5,45.6,30.03,SSE,158,4.9,5.6,52,0.00,,---,0.00,VWS V14.01,2013-10-09 02:15:00,
2013-10-08 21:21:00,63.1,45.8,30.03,SSE,158,3.6,9.6,53,0.00,,---,0.00,VWS V14.01,2013-10-09 02:21:00,
2013-10-08 21:26:00,63.1,46.2,30.03,SSE,158,3.8,7.2,54,0.00,,---,0.00,VWS V14.01,2013-10-09 02:26:00,
2013-10-08 21:31:00,63.1,46.2,30.03,SSE,158,5.6,8.7,54,0.00,,---,0.00,VWS V14.01,2013-10-09 02:31:00,
2013-10-08 21:36:00,63.1,46.7,30.03,SSW,202,3.6,8.7,55,0.00,,---,0.00,VWS V14.01,2013-10-09 02:36:00,
2013-10-08 21:41:00,63.0,46.6,30.03,South,180,8.5,8.5,55,0.00,,---,0.00,VWS V14.01,2013-10-09 02:41:00,
2013-10-08 21:46:00,63.0,47.0,30.03,South,180,3.8,10.3,56,0.00,,---,0.00,VWS V14.01,2013-10-09 02:46:00,
2013-10-08 21:51:00,62.8,46.9,30.03,SW,225,0.0,7.8,56,0.00,,---,0.00,VWS V14.01,2013-10-09 02:51:00,
2013-10-08 21:57:00,62.8,47.3,30.03,ESE,112,3.6,6.3,57,0.00,,---,0.00,VWS V14.01,2013-10-09 02:57:00,
2013-10-08 22:02:00,62.6,47.2,30.03,South,180,2.0,4.9,57,0.00,,---,0.00,VWS V14.01,2013-10-09 03:02:00,
2013-10-08 22:07:00,62.6,47.6,30.03,South,180,6.3,6.3,58,0.00,,---,0.00,VWS V14.01,2013-10-09 03:07:00,
2013-10-08 22:12:00,62.2,47.8,30.03,SSE,158,5.8,8.1,59,0.00,,---,0.00,VWS V14.01,2013-10-09 03:12:00,
2013-10-08 22:18:00,62.2,48.2,30.03,SSE,158,1.6,7.6,60,0.00,,---,0.00,VWS V14.01,2013-10-09 03:18:00,
2013-10-08 22:23:00,62.1,48.0,30.03,SE,135,4.3,5.6,60,0.00,,---,0.00,VWS V14.01,2013-10-09 03:23:00,
2013-10-08 22:28:00,61.9,47.9,30.03,SSW,202,5.6,7.2,60,0.00,,---,0.00,VWS V14.01,2013-10-09 03:28:00,
2013-10-08 22:33:00,61.7,48.1,30.03,South,180,2.5,6.0,61,0.00,,---,0.00,VWS V14.01,2013-10-09 03:33:00,
2013-10-08 22:39:00,61.3,47.8,30.03,South,180,5.6,5.8,61,0.00,,---,0.00,VWS V14.01,2013-10-09 03:39:00,
2013-10-08 22:44:00,61.3,48.2,30.03,SSW,202,5.8,7.2,62,0.00,,---,0.00,VWS V14.01,2013-10-09 03:44:00,
2013-10-08 22:49:00,61.2,48.0,30.03,SSW,202,4.3,8.5,62,0.00,,---,0.00,VWS V14.01,2013-10-09 03:49:00,
2013-10-08 22:54:00,61.2,48.0,30.03,SE,135,3.1,5.8,62,0.00,,---,0.00,VWS V14.01,2013-10-09 03:54:00,
2013-10-08 23:00:00,61.0,48.3,30.03,East,90,6.5,6.5,63,0.00,,---,0.00,VWS V14.01,2013-10-09 04:00:00,
2013-10-08 23:02:00,61.0,48.3,30.03,South,180,3.6,4.7,63,0.00,,---,0.00,VWS V14.01,2013-10-09 04:02:00,
2013-10-08 23:03:00,60.8,48.1,30.03,SSW,202,3.1,6.0,63,0.00,,---,0.00,VWS V14.01,2013-10-09 04:03:00,
2013-10-08 23:05:00,60.8,48.1,30.03,South,180,3.6,8.5,63,0.00,,---,0.00,VWS V14.01,2013-10-09 04:05:00,
2013-10-08 23:06:00,60.8,48.1,30.03,South,180,3.8,6.0,63,0.00,,---,0.00,VWS V14.01,2013-10-09 04:06:00,
2013-10-08 23:10:00,60.8,48.1,30.03,South,180,4.0,11.0,63,0.00,,---,0.00,VWS V14.01,2013-10-09 04:10:00,
2013-10-08 23:15:00,60.8,48.1,30.03,SE,135,10.5,12.8,63,0.00,,---,0.00,VWS V14.01,2013-10-09 04:15:00,
2013-10-08 23:21:00,60.6,48.4,30.03,SSW,202,3.4,7.8,64,0.00,,---,0.00,VWS V14.01,2013-10-09 04:21:00,
2013-10-08 23:26:00,60.4,48.2,30.03,SSW,202,3.8,4.0,64,0.00,,---,0.00,VWS V14.01,2013-10-09 04:26:00,
2013-10-08 23:31:00,60.4,48.2,30.03,South,180,3.1,6.3,64,0.00,,---,0.00,VWS V14.01,2013-10-09 04:31:00,
2013-10-08 23:36:00,60.1,47.9,30.03,SE,135,4.0,6.3,64,0.00,,---,0.00,VWS V14.01,2013-10-09 04:36:00,
2013-10-08 23:42:00,60.1,47.9,30.06,South,180,4.0,8.5,64,0.00,,---,0.00,VWS V14.01,2013-10-09 04:42:00,
2013-10-08 23:44:00,60.1,47.9,30.06,South,180,3.6,8.5,64,0.00,,---,0.00,VWS V14.01,2013-10-09 04:44:00,
2013-10-08 23:49:00,60.1,47.9,30.06,South,180,1.6,3.8,64,0.00,,---,0.00,VWS V14.01,2013-10-09 04:49:00,
2013-10-08 23:55:00,59.9,48.1,30.06,SSE,158,3.6,6.3,65,0.00,,---,0.00,VWS V14.01,2013-10-09 04:55:00,